メインページ
METAR-TAF:

METAR-TAF

空港 :

トゥーレ, グリーンランド

チューレ空軍基地

緯度: 76-32N, 経度: 068-42W, 海抜: 77m

現時点の気象観測

当レポートは1時間6分前の09:58(UTC)に作成
南東の風 10kt
気温 -5°C
湿度 63%
気圧 1018 hPa
視程10km以上
晴天

METAR: BGTL 200958Z AUTO 14010KT 9999 CLR M05/M11 A3006 RMK AO2 SLP165 T10501106

時間: 08:04 (11:04 UTC)

予報

当レポートは2時間4分前の09:00(UTC)に作成
予報は20日の 09時(UTC)から 21日の 15時(UTC)まで有効
東/南東の風 9kt、東/北東から南東の間で変化する
視程10km以上
高度6000ftの雲はほとんどない

TAF: BGTL 200900Z 2009/2115 11009KT 9999 FEW060 QNH3005INS WND 070V140 TX00/2020Z TNM07/2009Z

4,000以上の空港の気象観測と天気予報(METAR報とTAF報)

利用可能な観測所は地図上に黄色い丸と赤い丸で示す。

丸の上にカーソルを重ねると観測所名を参照できる。

次にクリックすると気象観測と天気予報を参照できる。

マップの切り替え:黒色「×」印の緑ボタンをクリックして拡大、「-」印の緑ボタンをクリックして縮小、緑色の三角印をクリックして隣りの地図に切り替え


METAR-TAF: